sensor_id;sensor_type;location;lat;lon;timestamp;P1;durP1;ratioP1;P2;durP2;ratioP2
12654;SDS011;6392;44.644;11.448;2022-12-29T00:01:49;78.20;;;37.20;;
12654;SDS011;6392;44.644;11.448;2022-12-29T00:04:17;76.77;;;35.57;;
12654;SDS011;6392;44.644;11.448;2022-12-29T00:06:45;77.17;;;35.80;;
12654;SDS011;6392;44.644;11.448;2022-12-29T00:09:12;80.77;;;35.37;;
12654;SDS011;6392;44.644;11.448;2022-12-29T00:11:41;82.23;;;35.77;;
12654;SDS011;6392;44.644;11.448;2022-12-29T00:14:09;78.33;;;36.33;;
12654;SDS011;6392;44.644;11.448;2022-12-29T00:16:54;77.83;;;35.80;;
12654;SDS011;6392;44.644;11.448;2022-12-29T00:19:21;83.93;;;38.20;;
12654;SDS011;6392;44.644;11.448;2022-12-29T00:22:06;72.10;;;34.33;;
12654;SDS011;6392;44.644;11.448;2022-12-29T00:24:52;80.20;;;35.27;;
12654;SDS011;6392;44.644;11.448;2022-12-29T00:27:49;77.60;;;34.67;;
12654;SDS011;6392;44.644;11.448;2022-12-29T00:30:33;72.17;;;32.20;;
12654;SDS011;6392;44.644;11.448;2022-12-29T00:33:20;82.80;;;35.97;;
12654;SDS011;6392;44.644;11.448;2022-12-29T00:36:11;77.83;;;34.77;;
12654;SDS011;6392;44.644;11.448;2022-12-29T00:38:43;75.40;;;35.30;;
12654;SDS011;6392;44.644;11.448;2022-12-29T00:41:31;88.67;;;35.70;;
12654;SDS011;6392;44.644;11.448;2022-12-29T00:44:16;85.87;;;38.50;;
12654;SDS011;6392;44.644;11.448;2022-12-29T00:46:44;101.23;;;39.47;;
12654;SDS011;6392;44.644;11.448;2022-12-29T00:49:11;85.10;;;38.77;;
12654;SDS011;6392;44.644;11.448;2022-12-29T00:51:57;77.17;;;35.33;;
12654;SDS011;6392;44.644;11.448;2022-12-29T00:54:25;97.10;;;39.80;;
12654;SDS011;6392;44.644;11.448;2022-12-29T00:56:53;84.53;;;37.30;;
12654;SDS011;6392;44.644;11.448;2022-12-29T00:59:21;84.20;;;38.03;;
12654;SDS011;6392;44.644;11.448;2022-12-29T01:01:50;89.77;;;36.33;;
12654;SDS011;6392;44.644;11.448;2022-12-29T01:04:18;83.07;;;36.93;;
12654;SDS011;6392;44.644;11.448;2022-12-29T01:06:46;81.10;;;35.20;;
12654;SDS011;6392;44.644;11.448;2022-12-29T01:09:13;82.80;;;36.47;;
12654;SDS011;6392;44.644;11.448;2022-12-29T01:11:57;78.63;;;37.57;;
12654;SDS011;6392;44.644;11.448;2022-12-29T01:14:26;85.80;;;36.30;;
12654;SDS011;6392;44.644;11.448;2022-12-29T01:16:53;103.20;;;42.50;;
12654;SDS011;6392;44.644;11.448;2022-12-29T01:19:21;79.60;;;37.03;;
12654;SDS011;6392;44.644;11.448;2022-12-29T01:21:48;88.20;;;37.93;;
12654;SDS011;6392;44.644;11.448;2022-12-29T01:24:16;97.00;;;41.73;;
12654;SDS011;6392;44.644;11.448;2022-12-29T01:26:44;88.23;;;39.53;;
12654;SDS011;6392;44.644;11.448;2022-12-29T01:29:12;92.43;;;40.43;;
12654;SDS011;6392;44.644;11.448;2022-12-29T01:31:40;84.03;;;37.80;;
12654;SDS011;6392;44.644;11.448;2022-12-29T01:34:07;76.00;;;36.03;;
12654;SDS011;6392;44.644;11.448;2022-12-29T01:36:34;87.70;;;39.53;;
12654;SDS011;6392;44.644;11.448;2022-12-29T01:39:01;90.13;;;38.57;;
12654;SDS011;6392;44.644;11.448;2022-12-29T01:41:28;90.13;;;40.50;;
12654;SDS011;6392;44.644;11.448;2022-12-29T01:43:57;75.00;;;36.30;;
12654;SDS011;6392;44.644;11.448;2022-12-29T01:46:26;90.33;;;37.87;;
12654;SDS011;6392;44.644;11.448;2022-12-29T01:48:59;93.07;;;38.80;;
12654;SDS011;6392;44.644;11.448;2022-12-29T01:51:31;95.60;;;42.43;;
12654;SDS011;6392;44.644;11.448;2022-12-29T01:54:02;96.00;;;39.93;;
12654;SDS011;6392;44.644;11.448;2022-12-29T01:56:33;100.43;;;41.87;;
12654;SDS011;6392;44.644;11.448;2022-12-29T01:59:02;95.97;;;42.10;;
12654;SDS011;6392;44.644;11.448;2022-12-29T02:01:31;106.10;;;42.63;;
12654;SDS011;6392;44.644;11.448;2022-12-29T02:04:00;97.60;;;42.13;;
12654;SDS011;6392;44.644;11.448;2022-12-29T02:06:28;93.13;;;39.47;;
12654;SDS011;6392;44.644;11.448;2022-12-29T02:08:59;95.60;;;41.07;;
12654;SDS011;6392;44.644;11.448;2022-12-29T02:11:26;94.10;;;41.03;;
12654;SDS011;6392;44.644;11.448;2022-12-29T02:13:56;94.83;;;40.87;;
12654;SDS011;6392;44.644;11.448;2022-12-29T02:16:29;96.13;;;39.83;;
12654;SDS011;6392;44.644;11.448;2022-12-29T02:19:19;90.40;;;39.47;;
12654;SDS011;6392;44.644;11.448;2022-12-29T02:22:11;69.50;;;34.33;;
12654;SDS011;6392;44.644;11.448;2022-12-29T02:25:00;74.80;;;35.10;;
12654;SDS011;6392;44.644;11.448;2022-12-29T02:27:51;80.53;;;36.37;;
12654;SDS011;6392;44.644;11.448;2022-12-29T02:33:20;85.53;;;39.10;;
12654;SDS011;6392;44.644;11.448;2022-12-29T02:35:54;92.93;;;38.47;;
12654;SDS011;6392;44.644;11.448;2022-12-29T02:38:30;91.60;;;37.50;;
12654;SDS011;6392;44.644;11.448;2022-12-29T02:41:07;92.93;;;39.03;;
12654;SDS011;6392;44.644;11.448;2022-12-29T02:43:42;90.47;;;39.23;;
12654;SDS011;6392;44.644;11.448;2022-12-29T02:46:17;83.63;;;39.23;;
12654;SDS011;6392;44.644;11.448;2022-12-29T02:48:54;79.20;;;36.40;;
12654;SDS011;6392;44.644;11.448;2022-12-29T02:51:28;84.93;;;38.67;;
12654;SDS011;6392;44.644;11.448;2022-12-29T02:53:58;93.23;;;37.80;;
12654;SDS011;6392;44.644;11.448;2022-12-29T02:56:43;78.37;;;35.83;;
12654;SDS011;6392;44.644;11.448;2022-12-29T02:59:10;80.40;;;36.80;;
12654;SDS011;6392;44.644;11.448;2022-12-29T03:01:43;87.00;;;37.17;;
12654;SDS011;6392;44.644;11.448;2022-12-29T03:04:37;90.77;;;37.83;;
12654;SDS011;6392;44.644;11.448;2022-12-29T03:07:12;87.07;;;40.03;;
12654;SDS011;6392;44.644;11.448;2022-12-29T03:09:49;79.43;;;36.53;;
12654;SDS011;6392;44.644;11.448;2022-12-29T03:12:27;85.87;;;38.37;;
12654;SDS011;6392;44.644;11.448;2022-12-29T03:15:18;92.80;;;40.17;;
12654;SDS011;6392;44.644;11.448;2022-12-29T03:18:09;98.43;;;40.90;;
12654;SDS011;6392;44.644;11.448;2022-12-29T03:20:43;101.37;;;40.50;;
12654;SDS011;6392;44.644;11.448;2022-12-29T03:23:15;91.77;;;40.27;;
12654;SDS011;6392;44.644;11.448;2022-12-29T03:25:45;92.50;;;41.27;;
12654;SDS011;6392;44.644;11.448;2022-12-29T03:28:17;92.40;;;41.07;;
12654;SDS011;6392;44.644;11.448;2022-12-29T03:30:48;90.73;;;40.13;;
12654;SDS011;6392;44.644;11.448;2022-12-29T03:33:17;92.57;;;38.57;;
12654;SDS011;6392;44.644;11.448;2022-12-29T03:35:48;95.03;;;41.03;;
12654;SDS011;6392;44.644;11.448;2022-12-29T03:38:17;97.40;;;40.47;;
12654;SDS011;6392;44.644;11.448;2022-12-29T03:40:48;92.20;;;42.17;;
12654;SDS011;6392;44.644;11.448;2022-12-29T03:43:18;92.27;;;40.50;;
12654;SDS011;6392;44.644;11.448;2022-12-29T03:45:46;98.13;;;41.10;;
12654;SDS011;6392;44.644;11.448;2022-12-29T03:48:13;89.77;;;40.53;;
12654;SDS011;6392;44.644;11.448;2022-12-29T03:50:42;95.77;;;40.47;;
12654;SDS011;6392;44.644;11.448;2022-12-29T03:53:09;96.20;;;40.40;;
12654;SDS011;6392;44.644;11.448;2022-12-29T03:55:36;98.37;;;39.97;;
12654;SDS011;6392;44.644;11.448;2022-12-29T03:58:03;105.87;;;42.83;;
12654;SDS011;6392;44.644;11.448;2022-12-29T04:00:30;99.30;;;41.43;;
12654;SDS011;6392;44.644;11.448;2022-12-29T04:02:57;97.03;;;39.67;;
12654;SDS011;6392;44.644;11.448;2022-12-29T04:05:24;96.73;;;40.97;;
12654;SDS011;6392;44.644;11.448;2022-12-29T04:07:52;91.33;;;40.93;;
12654;SDS011;6392;44.644;11.448;2022-12-29T04:10:19;100.03;;;38.60;;
12654;SDS011;6392;44.644;11.448;2022-12-29T04:12:46;93.27;;;39.33;;
12654;SDS011;6392;44.644;11.448;2022-12-29T04:15:13;92.30;;;38.63;;
12654;SDS011;6392;44.644;11.448;2022-12-29T04:17:40;99.53;;;41.43;;
12654;SDS011;6392;44.644;11.448;2022-12-29T04:20:08;100.73;;;39.53;;
12654;SDS011;6392;44.644;11.448;2022-12-29T04:22:58;94.03;;;38.70;;
12654;SDS011;6392;44.644;11.448;2022-12-29T04:25:26;93.77;;;37.13;;
12654;SDS011;6392;44.644;11.448;2022-12-29T04:27:53;87.10;;;37.67;;
12654;SDS011;6392;44.644;11.448;2022-12-29T04:30:20;86.50;;;36.40;;
12654;SDS011;6392;44.644;11.448;2022-12-29T04:32:47;93.60;;;37.53;;
12654;SDS011;6392;44.644;11.448;2022-12-29T04:35:14;86.50;;;37.07;;
12654;SDS011;6392;44.644;11.448;2022-12-29T04:37:41;84.23;;;35.83;;
12654;SDS011;6392;44.644;11.448;2022-12-29T04:40:11;82.97;;;37.30;;
12654;SDS011;6392;44.644;11.448;2022-12-29T04:42:38;80.83;;;36.83;;
12654;SDS011;6392;44.644;11.448;2022-12-29T04:45:05;100.43;;;38.37;;
12654;SDS011;6392;44.644;11.448;2022-12-29T04:47:33;86.50;;;35.93;;
12654;SDS011;6392;44.644;11.448;2022-12-29T04:50:00;86.10;;;36.30;;
12654;SDS011;6392;44.644;11.448;2022-12-29T04:52:27;90.00;;;37.67;;
12654;SDS011;6392;44.644;11.448;2022-12-29T04:54:54;76.17;;;33.73;;
12654;SDS011;6392;44.644;11.448;2022-12-29T04:57:23;85.13;;;35.43;;
12654;SDS011;6392;44.644;11.448;2022-12-29T04:59:50;83.33;;;35.57;;
12654;SDS011;6392;44.644;11.448;2022-12-29T05:02:17;72.80;;;33.70;;
12654;SDS011;6392;44.644;11.448;2022-12-29T05:04:44;87.90;;;35.83;;
12654;SDS011;6392;44.644;11.448;2022-12-29T05:07:12;82.87;;;35.60;;
12654;SDS011;6392;44.644;11.448;2022-12-29T05:09:39;89.80;;;34.97;;
12654;SDS011;6392;44.644;11.448;2022-12-29T05:12:06;92.70;;;37.73;;
12654;SDS011;6392;44.644;11.448;2022-12-29T05:14:34;99.93;;;38.73;;
12654;SDS011;6392;44.644;11.448;2022-12-29T05:17:01;87.13;;;36.77;;
12654;SDS011;6392;44.644;11.448;2022-12-29T05:19:28;86.70;;;36.17;;
12654;SDS011;6392;44.644;11.448;2022-12-29T05:21:56;84.53;;;33.90;;
12654;SDS011;6392;44.644;11.448;2022-12-29T05:24:23;86.90;;;36.43;;
12654;SDS011;6392;44.644;11.448;2022-12-29T05:26:50;74.80;;;35.67;;
12654;SDS011;6392;44.644;11.448;2022-12-29T05:29:17;86.43;;;35.77;;
12654;SDS011;6392;44.644;11.448;2022-12-29T05:31:46;78.33;;;33.57;;
12654;SDS011;6392;44.644;11.448;2022-12-29T05:34:13;86.47;;;34.87;;
12654;SDS011;6392;44.644;11.448;2022-12-29T05:36:40;80.63;;;32.90;;
12654;SDS011;6392;44.644;11.448;2022-12-29T05:39:08;82.20;;;34.50;;
12654;SDS011;6392;44.644;11.448;2022-12-29T05:41:35;79.60;;;33.23;;
12654;SDS011;6392;44.644;11.448;2022-12-29T05:44:02;75.87;;;34.77;;
12654;SDS011;6392;44.644;11.448;2022-12-29T05:46:30;74.33;;;32.87;;
12654;SDS011;6392;44.644;11.448;2022-12-29T05:48:58;69.73;;;31.90;;
12654;SDS011;6392;44.644;11.448;2022-12-29T05:51:25;76.10;;;32.13;;
12654;SDS011;6392;44.644;11.448;2022-12-29T05:53:52;75.80;;;31.47;;
12654;SDS011;6392;44.644;11.448;2022-12-29T05:56:19;69.57;;;33.20;;
12654;SDS011;6392;44.644;11.448;2022-12-29T05:58:46;71.57;;;31.50;;
12654;SDS011;6392;44.644;11.448;2022-12-29T06:01:13;69.33;;;30.83;;
12654;SDS011;6392;44.644;11.448;2022-12-29T06:03:40;72.67;;;32.17;;
12654;SDS011;6392;44.644;11.448;2022-12-29T06:06:09;77.80;;;31.93;;
12654;SDS011;6392;44.644;11.448;2022-12-29T06:08:36;73.83;;;31.70;;
12654;SDS011;6392;44.644;11.448;2022-12-29T06:11:03;75.33;;;31.90;;
12654;SDS011;6392;44.644;11.448;2022-12-29T06:13:30;72.03;;;32.43;;
12654;SDS011;6392;44.644;11.448;2022-12-29T06:15:57;73.53;;;33.23;;
12654;SDS011;6392;44.644;11.448;2022-12-29T06:18:24;65.57;;;32.67;;
12654;SDS011;6392;44.644;11.448;2022-12-29T06:20:51;73.73;;;32.63;;
12654;SDS011;6392;44.644;11.448;2022-12-29T06:23:19;70.90;;;32.50;;
12654;SDS011;6392;44.644;11.448;2022-12-29T06:25:47;70.23;;;32.67;;
12654;SDS011;6392;44.644;11.448;2022-12-29T06:28:14;72.47;;;33.37;;
12654;SDS011;6392;44.644;11.448;2022-12-29T06:30:43;67.67;;;31.73;;
12654;SDS011;6392;44.644;11.448;2022-12-29T06:33:10;72.90;;;32.30;;
12654;SDS011;6392;44.644;11.448;2022-12-29T06:35:38;64.27;;;30.00;;
12654;SDS011;6392;44.644;11.448;2022-12-29T06:38:05;71.80;;;32.27;;
12654;SDS011;6392;44.644;11.448;2022-12-29T06:40:33;74.07;;;32.17;;
12654;SDS011;6392;44.644;11.448;2022-12-29T06:43:00;73.30;;;32.00;;
12654;SDS011;6392;44.644;11.448;2022-12-29T06:45:27;73.60;;;31.77;;
12654;SDS011;6392;44.644;11.448;2022-12-29T06:47:54;68.47;;;32.27;;
12654;SDS011;6392;44.644;11.448;2022-12-29T06:50:21;72.60;;;34.33;;
12654;SDS011;6392;44.644;11.448;2022-12-29T06:52:48;77.50;;;32.90;;
12654;SDS011;6392;44.644;11.448;2022-12-29T06:55:15;70.80;;;32.77;;
12654;SDS011;6392;44.644;11.448;2022-12-29T06:57:44;81.23;;;35.60;;
12654;SDS011;6392;44.644;11.448;2022-12-29T07:00:11;76.50;;;34.87;;
12654;SDS011;6392;44.644;11.448;2022-12-29T07:02:39;83.80;;;36.20;;
12654;SDS011;6392;44.644;11.448;2022-12-29T07:05:06;87.73;;;38.37;;
12654;SDS011;6392;44.644;11.448;2022-12-29T07:07:35;85.33;;;38.63;;
12654;SDS011;6392;44.644;11.448;2022-12-29T07:10:03;86.83;;;37.97;;
12654;SDS011;6392;44.644;11.448;2022-12-29T07:12:30;97.90;;;40.57;;
12654;SDS011;6392;44.644;11.448;2022-12-29T07:14:58;93.93;;;40.27;;
12654;SDS011;6392;44.644;11.448;2022-12-29T07:17:25;91.67;;;42.07;;
12654;SDS011;6392;44.644;11.448;2022-12-29T07:19:52;95.17;;;42.10;;
12654;SDS011;6392;44.644;11.448;2022-12-29T07:22:19;93.97;;;42.30;;
12654;SDS011;6392;44.644;11.448;2022-12-29T07:24:46;92.17;;;42.50;;
12654;SDS011;6392;44.644;11.448;2022-12-29T07:27:13;86.00;;;39.37;;
12654;SDS011;6392;44.644;11.448;2022-12-29T07:29:40;102.00;;;44.50;;
12654;SDS011;6392;44.644;11.448;2022-12-29T07:32:09;88.23;;;42.50;;
12654;SDS011;6392;44.644;11.448;2022-12-29T07:34:36;100.53;;;45.80;;
12654;SDS011;6392;44.644;11.448;2022-12-29T07:37:04;99.10;;;42.33;;
12654;SDS011;6392;44.644;11.448;2022-12-29T07:39:32;83.90;;;41.73;;
12654;SDS011;6392;44.644;11.448;2022-12-29T07:41:59;102.73;;;45.27;;
12654;SDS011;6392;44.644;11.448;2022-12-29T07:44:26;100.63;;;44.23;;
12654;SDS011;6392;44.644;11.448;2022-12-29T07:46:53;87.60;;;42.13;;
12654;SDS011;6392;44.644;11.448;2022-12-29T07:49:21;97.00;;;42.90;;
12654;SDS011;6392;44.644;11.448;2022-12-29T07:51:48;98.97;;;44.10;;
12654;SDS011;6392;44.644;11.448;2022-12-29T07:54:15;104.53;;;43.67;;
12654;SDS011;6392;44.644;11.448;2022-12-29T07:56:43;96.13;;;44.13;;
12654;SDS011;6392;44.644;11.448;2022-12-29T07:59:12;100.70;;;42.63;;
12654;SDS011;6392;44.644;11.448;2022-12-29T08:01:39;105.00;;;43.23;;
12654;SDS011;6392;44.644;11.448;2022-12-29T08:04:06;88.37;;;41.77;;
12654;SDS011;6392;44.644;11.448;2022-12-29T08:06:34;97.27;;;42.53;;
12654;SDS011;6392;44.644;11.448;2022-12-29T08:09:02;96.33;;;41.20;;
12654;SDS011;6392;44.644;11.448;2022-12-29T08:11:30;98.97;;;41.27;;
12654;SDS011;6392;44.644;11.448;2022-12-29T08:13:57;99.07;;;42.77;;
12654;SDS011;6392;44.644;11.448;2022-12-29T08:16:24;96.40;;;43.57;;
12654;SDS011;6392;44.644;11.448;2022-12-29T08:18:51;96.20;;;42.70;;
12654;SDS011;6392;44.644;11.448;2022-12-29T08:21:18;95.90;;;43.43;;
12654;SDS011;6392;44.644;11.448;2022-12-29T08:23:46;97.90;;;43.83;;
12654;SDS011;6392;44.644;11.448;2022-12-29T08:26:14;91.80;;;43.37;;
12654;SDS011;6392;44.644;11.448;2022-12-29T08:28:41;87.80;;;41.00;;
12654;SDS011;6392;44.644;11.448;2022-12-29T08:31:08;93.90;;;42.30;;
12654;SDS011;6392;44.644;11.448;2022-12-29T08:33:35;92.53;;;42.43;;
12654;SDS011;6392;44.644;11.448;2022-12-29T08:36:02;99.20;;;43.43;;
12654;SDS011;6392;44.644;11.448;2022-12-29T08:38:30;92.93;;;43.33;;
12654;SDS011;6392;44.644;11.448;2022-12-29T08:40:59;94.50;;;42.43;;
12654;SDS011;6392;44.644;11.448;2022-12-29T08:43:27;97.20;;;42.60;;
12654;SDS011;6392;44.644;11.448;2022-12-29T08:45:55;103.67;;;43.03;;
12654;SDS011;6392;44.644;11.448;2022-12-29T08:48:23;100.27;;;43.47;;
12654;SDS011;6392;44.644;11.448;2022-12-29T08:50:51;91.07;;;40.17;;
12654;SDS011;6392;44.644;11.448;2022-12-29T08:53:18;90.03;;;41.70;;
12654;SDS011;6392;44.644;11.448;2022-12-29T08:55:46;98.17;;;43.50;;
12654;SDS011;6392;44.644;11.448;2022-12-29T08:58:21;101.53;;;44.00;;
12654;SDS011;6392;44.644;11.448;2022-12-29T09:00:48;95.00;;;43.50;;
12654;SDS011;6392;44.644;11.448;2022-12-29T09:03:17;88.30;;;44.10;;
12654;SDS011;6392;44.644;11.448;2022-12-29T09:05:47;84.03;;;39.47;;
12654;SDS011;6392;44.644;11.448;2022-12-29T09:08:14;88.07;;;39.43;;
12654;SDS011;6392;44.644;11.448;2022-12-29T09:10:41;85.13;;;39.90;;
12654;SDS011;6392;44.644;11.448;2022-12-29T09:13:08;91.90;;;40.60;;
12654;SDS011;6392;44.644;11.448;2022-12-29T09:15:37;95.17;;;41.57;;
12654;SDS011;6392;44.644;11.448;2022-12-29T09:18:04;86.23;;;41.77;;
12654;SDS011;6392;44.644;11.448;2022-12-29T09:20:32;88.53;;;41.27;;
12654;SDS011;6392;44.644;11.448;2022-12-29T09:23:00;85.97;;;42.63;;
12654;SDS011;6392;44.644;11.448;2022-12-29T09:25:27;95.70;;;41.17;;
12654;SDS011;6392;44.644;11.448;2022-12-29T09:27:54;92.97;;;40.73;;
12654;SDS011;6392;44.644;11.448;2022-12-29T09:30:22;85.27;;;39.93;;
12654;SDS011;6392;44.644;11.448;2022-12-29T09:32:51;88.20;;;41.00;;
12654;SDS011;6392;44.644;11.448;2022-12-29T09:35:18;83.30;;;40.97;;
12654;SDS011;6392;44.644;11.448;2022-12-29T09:37:47;84.20;;;41.73;;
12654;SDS011;6392;44.644;11.448;2022-12-29T09:40:18;82.23;;;36.93;;
12654;SDS011;6392;44.644;11.448;2022-12-29T09:45:50;89.80;;;42.57;;
12654;SDS011;6392;44.644;11.448;2022-12-29T09:48:25;89.47;;;41.90;;
12654;SDS011;6392;44.644;11.448;2022-12-29T09:50:57;86.07;;;40.40;;
12654;SDS011;6392;44.644;11.448;2022-12-29T09:53:29;97.17;;;42.30;;
12654;SDS011;6392;44.644;11.448;2022-12-29T09:56:03;86.40;;;43.27;;
12654;SDS011;6392;44.644;11.448;2022-12-29T09:58:38;82.57;;;41.30;;
12654;SDS011;6392;44.644;11.448;2022-12-29T10:01:12;91.20;;;41.20;;
12654;SDS011;6392;44.644;11.448;2022-12-29T10:03:48;85.20;;;41.27;;
12654;SDS011;6392;44.644;11.448;2022-12-29T10:06:19;93.33;;;42.80;;
12654;SDS011;6392;44.644;11.448;2022-12-29T10:08:55;89.03;;;41.97;;
12654;SDS011;6392;44.644;11.448;2022-12-29T10:11:30;99.30;;;44.67;;
12654;SDS011;6392;44.644;11.448;2022-12-29T10:14:12;86.80;;;41.70;;
12654;SDS011;6392;44.644;11.448;2022-12-29T10:16:54;92.03;;;42.60;;
12654;SDS011;6392;44.644;11.448;2022-12-29T10:19:36;84.40;;;42.30;;
12654;SDS011;6392;44.644;11.448;2022-12-29T10:22:18;93.33;;;45.27;;
12654;SDS011;6392;44.644;11.448;2022-12-29T10:24:54;89.03;;;42.73;;
12654;SDS011;6392;44.644;11.448;2022-12-29T10:27:22;93.17;;;42.93;;
12654;SDS011;6392;44.644;11.448;2022-12-29T10:29:52;79.83;;;40.33;;
12654;SDS011;6392;44.644;11.448;2022-12-29T10:32:28;80.43;;;40.73;;
12654;SDS011;6392;44.644;11.448;2022-12-29T10:35:03;82.20;;;41.43;;
12654;SDS011;6392;44.644;11.448;2022-12-29T10:37:38;83.60;;;41.13;;
12654;SDS011;6392;44.644;11.448;2022-12-29T10:40:14;80.40;;;39.43;;
12654;SDS011;6392;44.644;11.448;2022-12-29T10:42:46;78.50;;;39.27;;
12654;SDS011;6392;44.644;11.448;2022-12-29T10:45:18;84.37;;;40.47;;
12654;SDS011;6392;44.644;11.448;2022-12-29T10:47:50;81.93;;;40.13;;
12654;SDS011;6392;44.644;11.448;2022-12-29T10:50:24;82.97;;;40.13;;
12654;SDS011;6392;44.644;11.448;2022-12-29T10:52:52;76.83;;;38.63;;
12654;SDS011;6392;44.644;11.448;2022-12-29T10:55:21;72.93;;;36.80;;
12654;SDS011;6392;44.644;11.448;2022-12-29T10:57:53;77.80;;;38.43;;
12654;SDS011;6392;44.644;11.448;2022-12-29T11:00:22;65.30;;;35.10;;
12654;SDS011;6392;44.644;11.448;2022-12-29T11:02:54;76.03;;;36.93;;
12654;SDS011;6392;44.644;11.448;2022-12-29T11:05:37;70.87;;;34.97;;
12654;SDS011;6392;44.644;11.448;2022-12-29T11:08:12;67.43;;;36.13;;
12654;SDS011;6392;44.644;11.448;2022-12-29T11:10:44;66.03;;;35.40;;
12654;SDS011;6392;44.644;11.448;2022-12-29T11:13:13;67.07;;;34.97;;
12654;SDS011;6392;44.644;11.448;2022-12-29T11:15:43;66.67;;;35.10;;
12654;SDS011;6392;44.644;11.448;2022-12-29T11:18:18;71.37;;;34.60;;
12654;SDS011;6392;44.644;11.448;2022-12-29T11:20:48;69.40;;;34.37;;
12654;SDS011;6392;44.644;11.448;2022-12-29T11:23:25;73.50;;;34.17;;
12654;SDS011;6392;44.644;11.448;2022-12-29T11:28:46;66.57;;;33.87;;
12654;SDS011;6392;44.644;11.448;2022-12-29T11:31:29;66.33;;;31.57;;
12654;SDS011;6392;44.644;11.448;2022-12-29T11:33:57;66.33;;;33.33;;
12654;SDS011;6392;44.644;11.448;2022-12-29T11:36:34;60.80;;;31.63;;
12654;SDS011;6392;44.644;11.448;2022-12-29T11:39:06;62.93;;;31.40;;
12654;SDS011;6392;44.644;11.448;2022-12-29T11:41:54;59.73;;;31.97;;
12654;SDS011;6392;44.644;11.448;2022-12-29T11:44:26;60.40;;;30.33;;
12654;SDS011;6392;44.644;11.448;2022-12-29T11:46:58;64.53;;;32.10;;
12654;SDS011;6392;44.644;11.448;2022-12-29T11:49:26;61.47;;;29.90;;
12654;SDS011;6392;44.644;11.448;2022-12-29T11:52:06;58.40;;;28.17;;
12654;SDS011;6392;44.644;11.448;2022-12-29T11:54:40;56.17;;;28.67;;
12654;SDS011;6392;44.644;11.448;2022-12-29T11:57:13;53.20;;;27.13;;
12654;SDS011;6392;44.644;11.448;2022-12-29T11:59:43;56.97;;;29.10;;
12654;SDS011;6392;44.644;11.448;2022-12-29T12:02:30;60.43;;;28.77;;
12654;SDS011;6392;44.644;11.448;2022-12-29T12:05:05;59.63;;;28.83;;
12654;SDS011;6392;44.644;11.448;2022-12-29T12:07:41;50.93;;;27.80;;
12654;SDS011;6392;44.644;11.448;2022-12-29T12:10:12;47.70;;;24.93;;
12654;SDS011;6392;44.644;11.448;2022-12-29T12:12:46;53.07;;;25.37;;
12654;SDS011;6392;44.644;11.448;2022-12-29T12:15:18;49.37;;;24.40;;
12654;SDS011;6392;44.644;11.448;2022-12-29T12:17:50;54.23;;;26.27;;
12654;SDS011;6392;44.644;11.448;2022-12-29T12:20:21;51.33;;;24.97;;
12654;SDS011;6392;44.644;11.448;2022-12-29T12:22:58;47.83;;;25.10;;
12654;SDS011;6392;44.644;11.448;2022-12-29T12:25:34;37.50;;;20.07;;
12654;SDS011;6392;44.644;11.448;2022-12-29T12:28:05;35.27;;;18.73;;
12654;SDS011;6392;44.644;11.448;2022-12-29T12:30:39;34.77;;;16.83;;
12654;SDS011;6392;44.644;11.448;2022-12-29T12:33:14;36.40;;;18.23;;
12654;SDS011;6392;44.644;11.448;2022-12-29T12:35:48;35.97;;;17.13;;
12654;SDS011;6392;44.644;11.448;2022-12-29T12:38:26;37.50;;;18.13;;
12654;SDS011;6392;44.644;11.448;2022-12-29T12:41:08;33.17;;;17.07;;
12654;SDS011;6392;44.644;11.448;2022-12-29T12:43:41;34.40;;;18.27;;
12654;SDS011;6392;44.644;11.448;2022-12-29T12:49:17;39.77;;;19.50;;
12654;SDS011;6392;44.644;11.448;2022-12-29T12:52:04;35.53;;;19.73;;
12654;SDS011;6392;44.644;11.448;2022-12-29T12:54:45;33.20;;;17.00;;
12654;SDS011;6392;44.644;11.448;2022-12-29T12:57:32;36.43;;;17.67;;
12654;SDS011;6392;44.644;11.448;2022-12-29T13:00:08;38.13;;;20.10;;
12654;SDS011;6392;44.644;11.448;2022-12-29T13:02:41;36.00;;;18.60;;
12654;SDS011;6392;44.644;11.448;2022-12-29T13:05:24;34.00;;;18.60;;
12654;SDS011;6392;44.644;11.448;2022-12-29T13:08:03;33.93;;;17.93;;
12654;SDS011;6392;44.644;11.448;2022-12-29T13:10:50;38.60;;;18.97;;
12654;SDS011;6392;44.644;11.448;2022-12-29T13:13:28;35.67;;;19.20;;
12654;SDS011;6392;44.644;11.448;2022-12-29T13:16:22;36.90;;;19.87;;
12654;SDS011;6392;44.644;11.448;2022-12-29T13:18:56;37.47;;;18.70;;
12654;SDS011;6392;44.644;11.448;2022-12-29T13:21:29;37.80;;;18.70;;
12654;SDS011;6392;44.644;11.448;2022-12-29T13:24:04;40.90;;;19.27;;
12654;SDS011;6392;44.644;11.448;2022-12-29T13:26:44;36.53;;;18.93;;
12654;SDS011;6392;44.644;11.448;2022-12-29T13:29:15;38.20;;;19.53;;
12654;SDS011;6392;44.644;11.448;2022-12-29T13:31:50;37.87;;;20.00;;
12654;SDS011;6392;44.644;11.448;2022-12-29T13:34:25;42.70;;;19.97;;
12654;SDS011;6392;44.644;11.448;2022-12-29T13:37:01;40.77;;;20.30;;
12654;SDS011;6392;44.644;11.448;2022-12-29T13:39:33;35.53;;;18.90;;
12654;SDS011;6392;44.644;11.448;2022-12-29T13:42:04;34.07;;;18.07;;
12654;SDS011;6392;44.644;11.448;2022-12-29T13:44:33;39.63;;;20.00;;
12654;SDS011;6392;44.644;11.448;2022-12-29T13:47:18;39.93;;;20.13;;
12654;SDS011;6392;44.644;11.448;2022-12-29T13:49:51;34.63;;;19.40;;
12654;SDS011;6392;44.644;11.448;2022-12-29T13:52:21;37.77;;;20.13;;
12654;SDS011;6392;44.644;11.448;2022-12-29T13:55:00;39.43;;;19.97;;
12654;SDS011;6392;44.644;11.448;2022-12-29T13:57:37;37.17;;;19.50;;
12654;SDS011;6392;44.644;11.448;2022-12-29T14:00:11;37.50;;;18.70;;
12654;SDS011;6392;44.644;11.448;2022-12-29T14:02:45;37.43;;;18.73;;
12654;SDS011;6392;44.644;11.448;2022-12-29T14:05:27;36.30;;;19.67;;
12654;SDS011;6392;44.644;11.448;2022-12-29T14:07:58;38.77;;;18.97;;
12654;SDS011;6392;44.644;11.448;2022-12-29T14:10:27;39.07;;;18.83;;
12654;SDS011;6392;44.644;11.448;2022-12-29T14:13:03;34.90;;;19.17;;
12654;SDS011;6392;44.644;11.448;2022-12-29T14:15:37;33.30;;;18.27;;
12654;SDS011;6392;44.644;11.448;2022-12-29T14:18:14;32.37;;;18.33;;
12654;SDS011;6392;44.644;11.448;2022-12-29T14:20:47;31.87;;;18.10;;
12654;SDS011;6392;44.644;11.448;2022-12-29T14:23:26;37.40;;;19.67;;
12654;SDS011;6392;44.644;11.448;2022-12-29T14:26:12;42.30;;;19.43;;
12654;SDS011;6392;44.644;11.448;2022-12-29T14:28:43;36.00;;;19.37;;
12654;SDS011;6392;44.644;11.448;2022-12-29T14:36:56;39.40;;;20.03;;
12654;SDS011;6392;44.644;11.448;2022-12-29T14:39:28;33.73;;;18.83;;
12654;SDS011;6392;44.644;11.448;2022-12-29T14:42:03;34.93;;;18.87;;
12654;SDS011;6392;44.644;11.448;2022-12-29T14:44:34;35.10;;;17.63;;
12654;SDS011;6392;44.644;11.448;2022-12-29T14:47:15;40.30;;;20.97;;
12654;SDS011;6392;44.644;11.448;2022-12-29T14:49:46;41.37;;;19.43;;
12654;SDS011;6392;44.644;11.448;2022-12-29T14:52:15;36.43;;;19.57;;
12654;SDS011;6392;44.644;11.448;2022-12-29T14:54:50;39.40;;;19.47;;
12654;SDS011;6392;44.644;11.448;2022-12-29T14:57:25;41.27;;;20.60;;
12654;SDS011;6392;44.644;11.448;2022-12-29T14:59:58;41.63;;;19.53;;
12654;SDS011;6392;44.644;11.448;2022-12-29T15:02:32;35.00;;;18.40;;
12654;SDS011;6392;44.644;11.448;2022-12-29T15:05:05;34.30;;;17.73;;